sensor_id;sensor_type;location;lat;lon;timestamp;temperature;humidity
39601;DHT22;25297;44.758;11.310;2024-03-25T00:00:13;14.50;72.80
39601;DHT22;25297;44.758;11.310;2024-03-25T00:02:40;14.50;73.10
39601;DHT22;25297;44.758;11.310;2024-03-25T00:05:06;14.50;72.90
39601;DHT22;25297;44.758;11.310;2024-03-25T00:07:37;14.40;72.90
39601;DHT22;25297;44.758;11.310;2024-03-25T00:10:06;14.40;72.90
39601;DHT22;25297;44.758;11.310;2024-03-25T00:12:36;14.30;72.90
39601;DHT22;25297;44.758;11.310;2024-03-25T00:15:02;14.30;73.10
39601;DHT22;25297;44.758;11.310;2024-03-25T00:17:28;14.30;73.20
39601;DHT22;25297;44.758;11.310;2024-03-25T00:19:54;14.20;73.10
39601;DHT22;25297;44.758;11.310;2024-03-25T00:22:20;14.20;73.30
39601;DHT22;25297;44.758;11.310;2024-03-25T00:24:46;14.20;73.40
39601;DHT22;25297;44.758;11.310;2024-03-25T00:27:13;14.10;73.60
39601;DHT22;25297;44.758;11.310;2024-03-25T00:29:39;14.10;74.00
39601;DHT22;25297;44.758;11.310;2024-03-25T00:32:05;14.10;74.10
39601;DHT22;25297;44.758;11.310;2024-03-25T00:34:31;14.10;73.90
39601;DHT22;25297;44.758;11.310;2024-03-25T00:36:58;14.10;73.50
39601;DHT22;25297;44.758;11.310;2024-03-25T00:39:24;14.10;73.10
39601;DHT22;25297;44.758;11.310;2024-03-25T00:41:49;14.00;73.50
39601;DHT22;25297;44.758;11.310;2024-03-25T00:44:15;14.00;73.90
39601;DHT22;25297;44.758;11.310;2024-03-25T00:46:41;14.00;74.20
39601;DHT22;25297;44.758;11.310;2024-03-25T00:49:07;14.00;73.50
39601;DHT22;25297;44.758;11.310;2024-03-25T00:51:34;14.00;74.10
39601;DHT22;25297;44.758;11.310;2024-03-25T00:53:59;14.00;74.10
39601;DHT22;25297;44.758;11.310;2024-03-25T00:56:25;14.00;73.90
39601;DHT22;25297;44.758;11.310;2024-03-25T00:58:51;13.90;73.10
39601;DHT22;25297;44.758;11.310;2024-03-25T01:01:17;13.90;73.50
39601;DHT22;25297;44.758;11.310;2024-03-25T01:03:42;13.90;73.40
39601;DHT22;25297;44.758;11.310;2024-03-25T01:06:08;13.90;73.80
39601;DHT22;25297;44.758;11.310;2024-03-25T01:08:33;13.80;73.70
39601;DHT22;25297;44.758;11.310;2024-03-25T01:10:59;13.80;74.10
39601;DHT22;25297;44.758;11.310;2024-03-25T01:13:25;13.80;74.40
39601;DHT22;25297;44.758;11.310;2024-03-25T01:15:51;13.70;74.60
39601;DHT22;25297;44.758;11.310;2024-03-25T01:18:17;13.70;73.40
39601;DHT22;25297;44.758;11.310;2024-03-25T01:20:43;13.70;73.90
39601;DHT22;25297;44.758;11.310;2024-03-25T01:23:10;13.70;74.10
39601;DHT22;25297;44.758;11.310;2024-03-25T01:25:35;13.60;74.50
39601;DHT22;25297;44.758;11.310;2024-03-25T01:28:01;13.60;73.70
39601;DHT22;25297;44.758;11.310;2024-03-25T01:30:27;13.60;74.20
39601;DHT22;25297;44.758;11.310;2024-03-25T01:32:54;13.60;74.20
39601;DHT22;25297;44.758;11.310;2024-03-25T01:35:20;13.60;74.40
39601;DHT22;25297;44.758;11.310;2024-03-25T01:37:46;13.60;74.40
39601;DHT22;25297;44.758;11.310;2024-03-25T01:40:12;13.50;74.90
39601;DHT22;25297;44.758;11.310;2024-03-25T01:42:38;13.50;75.00
39601;DHT22;25297;44.758;11.310;2024-03-25T01:45:04;13.60;75.30
39601;DHT22;25297;44.758;11.310;2024-03-25T01:47:31;13.50;74.90
39601;DHT22;25297;44.758;11.310;2024-03-25T01:49:59;13.50;75.10
39601;DHT22;25297;44.758;11.310;2024-03-25T01:52:26;13.50;75.30
39601;DHT22;25297;44.758;11.310;2024-03-25T01:54:53;13.50;75.30
39601;DHT22;25297;44.758;11.310;2024-03-25T01:57:19;13.50;75.20
39601;DHT22;25297;44.758;11.310;2024-03-25T01:59:45;13.50;74.90
39601;DHT22;25297;44.758;11.310;2024-03-25T02:02:12;13.40;74.90
39601;DHT22;25297;44.758;11.310;2024-03-25T02:04:39;13.40;75.10
39601;DHT22;25297;44.758;11.310;2024-03-25T02:07:07;13.40;75.20
39601;DHT22;25297;44.758;11.310;2024-03-25T02:09:34;13.30;74.60
39601;DHT22;25297;44.758;11.310;2024-03-25T02:12:02;13.30;75.10
39601;DHT22;25297;44.758;11.310;2024-03-25T02:14:27;13.30;75.20
39601;DHT22;25297;44.758;11.310;2024-03-25T02:16:53;13.30;75.30
39601;DHT22;25297;44.758;11.310;2024-03-25T02:19:19;13.30;75.20
39601;DHT22;25297;44.758;11.310;2024-03-25T02:21:47;13.30;75.80
39601;DHT22;25297;44.758;11.310;2024-03-25T02:24:14;13.30;75.40
39601;DHT22;25297;44.758;11.310;2024-03-25T02:26:41;13.30;75.20
39601;DHT22;25297;44.758;11.310;2024-03-25T02:29:09;13.20;74.70
39601;DHT22;25297;44.758;11.310;2024-03-25T02:31:35;13.20;75.20
39601;DHT22;25297;44.758;11.310;2024-03-25T02:34:00;13.20;75.50
39601;DHT22;25297;44.758;11.310;2024-03-25T02:36:26;13.20;75.60
39601;DHT22;25297;44.758;11.310;2024-03-25T02:38:52;13.20;75.10
39601;DHT22;25297;44.758;11.310;2024-03-25T02:41:18;13.20;75.50
39601;DHT22;25297;44.758;11.310;2024-03-25T02:43:43;13.20;75.50
39601;DHT22;25297;44.758;11.310;2024-03-25T02:46:09;13.20;75.10
39601;DHT22;25297;44.758;11.310;2024-03-25T02:48:34;13.20;74.30
39601;DHT22;25297;44.758;11.310;2024-03-25T02:51:00;13.10;74.90
39601;DHT22;25297;44.758;11.310;2024-03-25T02:53:26;13.10;75.20
39601;DHT22;25297;44.758;11.310;2024-03-25T02:55:51;13.10;74.80
39601;DHT22;25297;44.758;11.310;2024-03-25T02:58:17;13.10;73.80
39601;DHT22;25297;44.758;11.310;2024-03-25T03:00:43;13.10;74.20
39601;DHT22;25297;44.758;11.310;2024-03-25T03:03:08;13.00;74.20
39601;DHT22;25297;44.758;11.310;2024-03-25T03:05:34;13.00;73.90
39601;DHT22;25297;44.758;11.310;2024-03-25T03:08:00;12.90;73.40
39601;DHT22;25297;44.758;11.310;2024-03-25T03:10:26;12.90;73.90
39601;DHT22;25297;44.758;11.310;2024-03-25T03:12:51;12.90;73.90
39601;DHT22;25297;44.758;11.310;2024-03-25T03:15:17;12.90;73.60
39601;DHT22;25297;44.758;11.310;2024-03-25T03:17:43;12.80;73.40
39601;DHT22;25297;44.758;11.310;2024-03-25T03:20:09;12.80;73.90
39601;DHT22;25297;44.758;11.310;2024-03-25T03:22:35;12.80;74.50
39601;DHT22;25297;44.758;11.310;2024-03-25T03:25:01;12.70;74.90
39601;DHT22;25297;44.758;11.310;2024-03-25T03:27:26;12.70;74.80
39601;DHT22;25297;44.758;11.310;2024-03-25T03:29:52;12.70;74.90
39601;DHT22;25297;44.758;11.310;2024-03-25T03:32:18;12.70;74.90
39601;DHT22;25297;44.758;11.310;2024-03-25T03:34:44;12.70;75.10
39601;DHT22;25297;44.758;11.310;2024-03-25T03:37:09;12.60;74.80
39601;DHT22;25297;44.758;11.310;2024-03-25T03:39:35;12.60;74.50
39601;DHT22;25297;44.758;11.310;2024-03-25T03:42:00;12.60;74.80
39601;DHT22;25297;44.758;11.310;2024-03-25T03:44:26;12.60;75.00
39601;DHT22;25297;44.758;11.310;2024-03-25T03:46:52;12.50;74.80
39601;DHT22;25297;44.758;11.310;2024-03-25T03:49:18;12.50;74.30
39601;DHT22;25297;44.758;11.310;2024-03-25T03:51:43;12.50;75.10
39601;DHT22;25297;44.758;11.310;2024-03-25T03:54:09;12.40;75.10
39601;DHT22;25297;44.758;11.310;2024-03-25T03:56:34;12.40;75.20
39601;DHT22;25297;44.758;11.310;2024-03-25T03:59:00;12.40;74.90
39601;DHT22;25297;44.758;11.310;2024-03-25T04:01:25;12.40;75.70
39601;DHT22;25297;44.758;11.310;2024-03-25T04:03:51;12.40;75.50
39601;DHT22;25297;44.758;11.310;2024-03-25T04:06:17;12.30;75.60
39601;DHT22;25297;44.758;11.310;2024-03-25T04:08:42;12.30;75.10
39601;DHT22;25297;44.758;11.310;2024-03-25T04:11:08;12.30;75.70
39601;DHT22;25297;44.758;11.310;2024-03-25T04:13:35;12.20;75.80
39601;DHT22;25297;44.758;11.310;2024-03-25T04:16:03;12.30;75.90
39601;DHT22;25297;44.758;11.310;2024-03-25T04:18:29;12.30;75.10
39601;DHT22;25297;44.758;11.310;2024-03-25T04:20:55;12.30;75.40
39601;DHT22;25297;44.758;11.310;2024-03-25T04:23:21;12.30;74.80
39601;DHT22;25297;44.758;11.310;2024-03-25T04:25:46;12.30;74.70
39601;DHT22;25297;44.758;11.310;2024-03-25T04:28:12;12.20;74.70
39601;DHT22;25297;44.758;11.310;2024-03-25T04:30:38;12.20;75.20
39601;DHT22;25297;44.758;11.310;2024-03-25T04:33:03;12.20;75.20
39601;DHT22;25297;44.758;11.310;2024-03-25T04:35:29;12.20;74.60
39601;DHT22;25297;44.758;11.310;2024-03-25T04:37:55;12.10;75.20
39601;DHT22;25297;44.758;11.310;2024-03-25T04:40:21;12.20;75.80
39601;DHT22;25297;44.758;11.310;2024-03-25T04:42:46;12.20;76.00
39601;DHT22;25297;44.758;11.310;2024-03-25T04:45:12;12.20;76.10
39601;DHT22;25297;44.758;11.310;2024-03-25T04:47:39;11.70;74.50
39601;DHT22;25297;44.758;11.310;2024-03-25T04:50:05;12.10;75.30
39601;DHT22;25297;44.758;11.310;2024-03-25T04:52:31;12.10;75.60
39601;DHT22;25297;44.758;11.310;2024-03-25T04:54:57;12.10;75.90
39601;DHT22;25297;44.758;11.310;2024-03-25T04:57:23;12.10;76.10
39601;DHT22;25297;44.758;11.310;2024-03-25T04:59:48;12.10;76.00
39601;DHT22;25297;44.758;11.310;2024-03-25T05:02:14;12.10;75.70
39601;DHT22;25297;44.758;11.310;2024-03-25T05:04:40;12.20;75.20
39601;DHT22;25297;44.758;11.310;2024-03-25T05:07:05;12.20;75.10
39601;DHT22;25297;44.758;11.310;2024-03-25T05:09:31;12.10;74.80
39601;DHT22;25297;44.758;11.310;2024-03-25T05:11:57;12.10;75.60
39601;DHT22;25297;44.758;11.310;2024-03-25T05:14:22;12.10;76.00
39601;DHT22;25297;44.758;11.310;2024-03-25T05:16:48;12.10;76.00
39601;DHT22;25297;44.758;11.310;2024-03-25T05:19:14;12.10;74.60
39601;DHT22;25297;44.758;11.310;2024-03-25T05:21:40;12.10;75.10
39601;DHT22;25297;44.758;11.310;2024-03-25T05:24:06;12.10;75.20
39601;DHT22;25297;44.758;11.310;2024-03-25T05:26:32;12.10;75.10
39601;DHT22;25297;44.758;11.310;2024-03-25T05:28:58;12.00;74.30
39601;DHT22;25297;44.758;11.310;2024-03-25T05:31:24;12.00;75.00
39601;DHT22;25297;44.758;11.310;2024-03-25T05:33:50;12.00;75.60
39601;DHT22;25297;44.758;11.310;2024-03-25T05:36:15;11.90;75.80
39601;DHT22;25297;44.758;11.310;2024-03-25T05:38:42;11.90;76.00
39601;DHT22;25297;44.758;11.310;2024-03-25T05:41:08;11.90;76.80
39601;DHT22;25297;44.758;11.310;2024-03-25T05:43:34;11.90;77.00
39601;DHT22;25297;44.758;11.310;2024-03-25T05:46:00;12.00;77.30
39601;DHT22;25297;44.758;11.310;2024-03-25T05:48:25;12.00;77.10
39601;DHT22;25297;44.758;11.310;2024-03-25T05:51:02;12.00;77.70
39601;DHT22;25297;44.758;11.310;2024-03-25T05:53:28;12.00;77.80
39601;DHT22;25297;44.758;11.310;2024-03-25T05:55:54;12.10;77.70
39601;DHT22;25297;44.758;11.310;2024-03-25T05:58:19;12.10;78.30
39601;DHT22;25297;44.758;11.310;2024-03-25T06:00:49;12.10;77.70
39601;DHT22;25297;44.758;11.310;2024-03-25T06:03:15;12.20;77.40
39601;DHT22;25297;44.758;11.310;2024-03-25T06:05:41;12.20;77.20
39601;DHT22;25297;44.758;11.310;2024-03-25T06:08:07;12.20;76.40
39601;DHT22;25297;44.758;11.310;2024-03-25T06:10:41;12.20;76.90
39601;DHT22;25297;44.758;11.310;2024-03-25T06:13:07;12.30;76.70
39601;DHT22;25297;44.758;11.310;2024-03-25T06:15:32;12.30;76.80
39601;DHT22;25297;44.758;11.310;2024-03-25T06:17:58;12.30;76.00
39601;DHT22;25297;44.758;11.310;2024-03-25T06:20:24;12.40;76.40
39601;DHT22;25297;44.758;11.310;2024-03-25T06:22:49;12.40;76.10
39601;DHT22;25297;44.758;11.310;2024-03-25T06:25:16;12.40;76.00
39601;DHT22;25297;44.758;11.310;2024-03-25T06:27:42;12.40;75.50
39601;DHT22;25297;44.758;11.310;2024-03-25T06:30:10;12.40;75.80
39601;DHT22;25297;44.758;11.310;2024-03-25T06:32:54;12.40;74.80
39601;DHT22;25297;44.758;11.310;2024-03-25T06:35:38;12.50;75.30
39601;DHT22;25297;44.758;11.310;2024-03-25T06:38:04;12.50;75.70
39601;DHT22;25297;44.758;11.310;2024-03-25T06:40:30;12.50;75.30
39601;DHT22;25297;44.758;11.310;2024-03-25T06:42:57;12.50;75.10
39601;DHT22;25297;44.758;11.310;2024-03-25T06:45:23;12.60;75.80
39601;DHT22;25297;44.758;11.310;2024-03-25T06:47:48;12.60;74.90
39601;DHT22;25297;44.758;11.310;2024-03-25T06:50:14;12.60;75.10
39601;DHT22;25297;44.758;11.310;2024-03-25T06:52:40;12.70;75.10
39601;DHT22;25297;44.758;11.310;2024-03-25T06:55:06;12.70;75.00
39601;DHT22;25297;44.758;11.310;2024-03-25T06:57:32;12.80;74.40
39601;DHT22;25297;44.758;11.310;2024-03-25T06:59:58;12.80;74.80
39601;DHT22;25297;44.758;11.310;2024-03-25T07:02:23;12.90;75.00
39601;DHT22;25297;44.758;11.310;2024-03-25T07:04:49;12.90;74.70
39601;DHT22;25297;44.758;11.310;2024-03-25T07:07:15;13.00;74.90
39601;DHT22;25297;44.758;11.310;2024-03-25T07:09:40;13.00;74.90
39601;DHT22;25297;44.758;11.310;2024-03-25T07:12:08;13.10;75.30
39601;DHT22;25297;44.758;11.310;2024-03-25T07:14:33;13.10;75.10
39601;DHT22;25297;44.758;11.310;2024-03-25T07:16:59;13.20;75.30
39601;DHT22;25297;44.758;11.310;2024-03-25T07:19:25;13.20;75.70
39601;DHT22;25297;44.758;11.310;2024-03-25T07:21:50;13.30;76.30
39601;DHT22;25297;44.758;11.310;2024-03-25T07:24:16;13.40;76.40
39601;DHT22;25297;44.758;11.310;2024-03-25T07:26:42;13.50;76.30
39601;DHT22;25297;44.758;11.310;2024-03-25T07:29:07;13.60;76.30
39601;DHT22;25297;44.758;11.310;2024-03-25T07:31:34;13.70;76.80
39601;DHT22;25297;44.758;11.310;2024-03-25T07:33:59;13.70;76.50
39601;DHT22;25297;44.758;11.310;2024-03-25T07:36:25;13.80;76.40
39601;DHT22;25297;44.758;11.310;2024-03-25T07:38:50;13.90;76.50
39601;DHT22;25297;44.758;11.310;2024-03-25T07:41:16;14.00;76.60
39601;DHT22;25297;44.758;11.310;2024-03-25T07:43:41;14.00;76.90
39601;DHT22;25297;44.758;11.310;2024-03-25T07:46:07;14.20;76.90
39601;DHT22;25297;44.758;11.310;2024-03-25T07:48:33;14.30;77.10
39601;DHT22;25297;44.758;11.310;2024-03-25T07:50:58;14.40;76.90
39601;DHT22;25297;44.758;11.310;2024-03-25T07:53:24;14.50;77.40
39601;DHT22;25297;44.758;11.310;2024-03-25T07:55:49;14.50;77.40
39601;DHT22;25297;44.758;11.310;2024-03-25T07:58:16;14.60;76.10
39601;DHT22;25297;44.758;11.310;2024-03-25T08:00:42;14.60;76.70
39601;DHT22;25297;44.758;11.310;2024-03-25T08:03:08;14.70;76.20
39601;DHT22;25297;44.758;11.310;2024-03-25T08:05:33;14.80;76.10
39601;DHT22;25297;44.758;11.310;2024-03-25T08:07:59;14.80;76.50
39601;DHT22;25297;44.758;11.310;2024-03-25T08:10:24;14.90;77.50
39601;DHT22;25297;44.758;11.310;2024-03-25T08:12:50;15.00;76.70
39601;DHT22;25297;44.758;11.310;2024-03-25T08:15:16;15.10;76.40
39601;DHT22;25297;44.758;11.310;2024-03-25T08:17:41;15.10;76.30
39601;DHT22;25297;44.758;11.310;2024-03-25T08:20:07;15.20;75.80
39601;DHT22;25297;44.758;11.310;2024-03-25T08:22:34;15.30;75.90
39601;DHT22;25297;44.758;11.310;2024-03-25T08:24:59;15.30;76.20
39601;DHT22;25297;44.758;11.310;2024-03-25T08:27:25;15.40;75.80
39601;DHT22;25297;44.758;11.310;2024-03-25T08:29:50;15.40;76.00
39601;DHT22;25297;44.758;11.310;2024-03-25T08:32:18;15.50;76.00
39601;DHT22;25297;44.758;11.310;2024-03-25T08:34:44;15.50;75.50
39601;DHT22;25297;44.758;11.310;2024-03-25T08:37:10;15.60;75.20
39601;DHT22;25297;44.758;11.310;2024-03-25T08:39:36;15.60;75.10
39601;DHT22;25297;44.758;11.310;2024-03-25T08:42:01;15.60;74.30
39601;DHT22;25297;44.758;11.310;2024-03-25T08:44:27;15.70;73.90
39601;DHT22;25297;44.758;11.310;2024-03-25T08:46:53;15.80;73.40
39601;DHT22;25297;44.758;11.310;2024-03-25T08:49:18;15.90;73.80
39601;DHT22;25297;44.758;11.310;2024-03-25T08:51:44;15.90;73.10
39601;DHT22;25297;44.758;11.310;2024-03-25T08:54:09;16.00;73.70
39601;DHT22;25297;44.758;11.310;2024-03-25T08:56:35;16.00;74.20
39601;DHT22;25297;44.758;11.310;2024-03-25T08:59:01;16.20;73.90
39601;DHT22;25297;44.758;11.310;2024-03-25T09:01:26;16.20;73.20
39601;DHT22;25297;44.758;11.310;2024-03-25T09:03:52;16.20;72.90
39601;DHT22;25297;44.758;11.310;2024-03-25T09:06:18;16.30;73.20
39601;DHT22;25297;44.758;11.310;2024-03-25T09:08:43;16.40;72.50
39601;DHT22;25297;44.758;11.310;2024-03-25T09:11:27;16.40;72.30
39601;DHT22;25297;44.758;11.310;2024-03-25T09:13:53;16.50;72.30
39601;DHT22;25297;44.758;11.310;2024-03-25T09:16:19;16.50;72.40
39601;DHT22;25297;44.758;11.310;2024-03-25T09:18:44;16.50;71.80
39601;DHT22;25297;44.758;11.310;2024-03-25T09:21:11;16.60;72.30
39601;DHT22;25297;44.758;11.310;2024-03-25T09:23:36;16.60;71.80
39601;DHT22;25297;44.758;11.310;2024-03-25T09:26:02;16.70;71.50
39601;DHT22;25297;44.758;11.310;2024-03-25T09:28:28;16.70;71.40
39601;DHT22;25297;44.758;11.310;2024-03-25T09:30:53;16.80;71.50
39601;DHT22;25297;44.758;11.310;2024-03-25T09:33:19;16.80;71.60
39601;DHT22;25297;44.758;11.310;2024-03-25T09:35:44;16.90;71.40
39601;DHT22;25297;44.758;11.310;2024-03-25T09:38:10;17.00;70.90
39601;DHT22;25297;44.758;11.310;2024-03-25T09:40:39;17.00;71.80
39601;DHT22;25297;44.758;11.310;2024-03-25T09:43:11;17.10;71.70
39601;DHT22;25297;44.758;11.310;2024-03-25T09:45:40;17.10;72.20
39601;DHT22;25297;44.758;11.310;2024-03-25T09:48:06;17.20;72.30
39601;DHT22;25297;44.758;11.310;2024-03-25T09:50:32;17.20;71.30
39601;DHT22;25297;44.758;11.310;2024-03-25T09:52:58;17.20;70.30
39601;DHT22;25297;44.758;11.310;2024-03-25T09:55:23;17.20;70.60
39601;DHT22;25297;44.758;11.310;2024-03-25T09:57:49;17.30;71.00
39601;DHT22;25297;44.758;11.310;2024-03-25T10:00:15;17.40;70.00
39601;DHT22;25297;44.758;11.310;2024-03-25T10:02:41;17.40;70.20
39601;DHT22;25297;44.758;11.310;2024-03-25T10:05:08;17.40;70.00
39601;DHT22;25297;44.758;11.310;2024-03-25T10:07:34;17.50;69.90
39601;DHT22;25297;44.758;11.310;2024-03-25T10:10:03;17.50;70.70
39601;DHT22;25297;44.758;11.310;2024-03-25T10:12:30;17.60;71.60
39601;DHT22;25297;44.758;11.310;2024-03-25T10:14:56;17.60;71.70
39601;DHT22;25297;44.758;11.310;2024-03-25T10:17:22;17.70;71.20
39601;DHT22;25297;44.758;11.310;2024-03-25T10:19:48;17.70;70.50
39601;DHT22;25297;44.758;11.310;2024-03-25T10:22:14;17.80;69.40
39601;DHT22;25297;44.758;11.310;2024-03-25T10:24:45;17.80;71.20
39601;DHT22;25297;44.758;11.310;2024-03-25T10:27:21;17.90;71.60
39601;DHT22;25297;44.758;11.310;2024-03-25T10:29:48;17.90;71.60
39601;DHT22;25297;44.758;11.310;2024-03-25T10:32:14;18.00;71.90
39601;DHT22;25297;44.758;11.310;2024-03-25T10:34:40;18.00;72.20
39601;DHT22;25297;44.758;11.310;2024-03-25T10:37:09;18.10;73.10
39601;DHT22;25297;44.758;11.310;2024-03-25T10:39:39;18.20;71.90
39601;DHT22;25297;44.758;11.310;2024-03-25T10:42:11;18.20;71.10
39601;DHT22;25297;44.758;11.310;2024-03-25T10:44:38;18.20;71.50
39601;DHT22;25297;44.758;11.310;2024-03-25T10:47:05;18.20;72.20
39601;DHT22;25297;44.758;11.310;2024-03-25T10:49:38;18.30;72.10
39601;DHT22;25297;44.758;11.310;2024-03-25T10:52:06;18.40;72.10
39601;DHT22;25297;44.758;11.310;2024-03-25T10:54:33;18.50;72.00
39601;DHT22;25297;44.758;11.310;2024-03-25T10:56:59;18.50;71.90
39601;DHT22;25297;44.758;11.310;2024-03-25T10:59:30;18.50;70.60
39601;DHT22;25297;44.758;11.310;2024-03-25T11:01:56;18.60;69.60
39601;DHT22;25297;44.758;11.310;2024-03-25T11:04:23;18.60;68.40
39601;DHT22;25297;44.758;11.310;2024-03-25T11:06:49;18.60;69.00
39601;DHT22;25297;44.758;11.310;2024-03-25T11:09:24;18.70;68.80
39601;DHT22;25297;44.758;11.310;2024-03-25T11:11:52;18.70;68.80
39601;DHT22;25297;44.758;11.310;2024-03-25T11:14:18;18.70;68.80
39601;DHT22;25297;44.758;11.310;2024-03-25T11:16:48;18.80;67.70
39601;DHT22;25297;44.758;11.310;2024-03-25T11:19:17;18.80;68.40
39601;DHT22;25297;44.758;11.310;2024-03-25T11:21:43;18.80;68.70
39601;DHT22;25297;44.758;11.310;2024-03-25T11:24:09;18.90;68.50
39601;DHT22;25297;44.758;11.310;2024-03-25T11:26:34;18.90;68.40
39601;DHT22;25297;44.758;11.310;2024-03-25T11:29:01;19.00;68.40
39601;DHT22;25297;44.758;11.310;2024-03-25T11:31:27;19.00;67.70
39601;DHT22;25297;44.758;11.310;2024-03-25T11:33:53;19.00;67.40
39601;DHT22;25297;44.758;11.310;2024-03-25T11:36:20;19.00;67.20
39601;DHT22;25297;44.758;11.310;2024-03-25T11:39:06;19.10;66.60
39601;DHT22;25297;44.758;11.310;2024-03-25T11:41:41;19.10;66.00
39601;DHT22;25297;44.758;11.310;2024-03-25T11:44:11;19.20;66.10
39601;DHT22;25297;44.758;11.310;2024-03-25T11:46:41;19.20;65.60
39601;DHT22;25297;44.758;11.310;2024-03-25T11:49:11;19.30;65.90
39601;DHT22;25297;44.758;11.310;2024-03-25T11:51:37;19.30;64.20
39601;DHT22;25297;44.758;11.310;2024-03-25T11:54:06;19.30;63.70
39601;DHT22;25297;44.758;11.310;2024-03-25T11:56:32;19.30;63.50
39601;DHT22;25297;44.758;11.310;2024-03-25T11:59:00;19.30;63.70
39601;DHT22;25297;44.758;11.310;2024-03-25T12:01:26;19.40;64.40
39601;DHT22;25297;44.758;11.310;2024-03-25T12:03:52;19.40;63.90
39601;DHT22;25297;44.758;11.310;2024-03-25T12:06:17;19.50;62.50
39601;DHT22;25297;44.758;11.310;2024-03-25T12:08:43;19.50;63.30
39601;DHT22;25297;44.758;11.310;2024-03-25T12:11:27;19.50;64.70
39601;DHT22;25297;44.758;11.310;2024-03-25T12:13:53;19.60;65.10
39601;DHT22;25297;44.758;11.310;2024-03-25T12:16:19;19.70;63.50
39601;DHT22;25297;44.758;11.310;2024-03-25T12:18:45;19.80;62.50
39601;DHT22;25297;44.758;11.310;2024-03-25T12:21:11;19.80;62.40
39601;DHT22;25297;44.758;11.310;2024-03-25T12:23:36;19.80;62.30
39601;DHT22;25297;44.758;11.310;2024-03-25T12:26:04;19.90;62.70
39601;DHT22;25297;44.758;11.310;2024-03-25T12:28:34;19.90;63.50
39601;DHT22;25297;44.758;11.310;2024-03-25T12:31:02;20.00;63.80
39601;DHT22;25297;44.758;11.310;2024-03-25T12:33:28;20.00;63.30
39601;DHT22;25297;44.758;11.310;2024-03-25T12:35:54;20.10;62.10
39601;DHT22;25297;44.758;11.310;2024-03-25T12:38:28;20.10;62.70
39601;DHT22;25297;44.758;11.310;2024-03-25T12:41:02;20.20;60.00
39601;DHT22;25297;44.758;11.310;2024-03-25T12:43:30;20.20;60.60
39601;DHT22;25297;44.758;11.310;2024-03-25T12:45:57;20.20;60.90
39601;DHT22;25297;44.758;11.310;2024-03-25T12:48:23;20.20;61.20
39601;DHT22;25297;44.758;11.310;2024-03-25T12:50:48;20.30;59.20
39601;DHT22;25297;44.758;11.310;2024-03-25T12:53:17;20.30;58.70
39601;DHT22;25297;44.758;11.310;2024-03-25T12:55:43;20.30;58.60
39601;DHT22;25297;44.758;11.310;2024-03-25T12:58:08;20.40;59.50
39601;DHT22;25297;44.758;11.310;2024-03-25T13:00:34;20.40;59.70
39601;DHT22;25297;44.758;11.310;2024-03-25T13:03:00;20.40;58.20
39601;DHT22;25297;44.758;11.310;2024-03-25T13:05:27;20.40;58.60
39601;DHT22;25297;44.758;11.310;2024-03-25T13:07:54;20.40;58.80
39601;DHT22;25297;44.758;11.310;2024-03-25T13:10:20;20.40;58.60
39601;DHT22;25297;44.758;11.310;2024-03-25T13:12:46;20.40;58.00
39601;DHT22;25297;44.758;11.310;2024-03-25T13:15:11;20.40;58.80
39601;DHT22;25297;44.758;11.310;2024-03-25T13:17:37;20.40;59.00
39601;DHT22;25297;44.758;11.310;2024-03-25T13:20:03;20.40;57.60
39601;DHT22;25297;44.758;11.310;2024-03-25T13:22:30;20.40;56.50
39601;DHT22;25297;44.758;11.310;2024-03-25T13:24:58;20.40;55.10
39601;DHT22;25297;44.758;11.310;2024-03-25T13:27:24;20.40;54.50
39601;DHT22;25297;44.758;11.310;2024-03-25T13:29:50;20.40;55.60
39601;DHT22;25297;44.758;11.310;2024-03-25T13:32:18;20.40;57.00
39601;DHT22;25297;44.758;11.310;2024-03-25T13:34:44;20.40;57.90
39601;DHT22;25297;44.758;11.310;2024-03-25T13:37:10;20.40;57.70
39601;DHT22;25297;44.758;11.310;2024-03-25T13:39:35;20.40;58.10
39601;DHT22;25297;44.758;11.310;2024-03-25T13:42:01;20.50;57.60
39601;DHT22;25297;44.758;11.310;2024-03-25T13:44:27;20.50;57.60
39601;DHT22;25297;44.758;11.310;2024-03-25T13:46:53;20.50;58.50
39601;DHT22;25297;44.758;11.310;2024-03-25T13:49:19;20.50;57.50
39601;DHT22;25297;44.758;11.310;2024-03-25T13:51:45;20.50;57.90
39601;DHT22;25297;44.758;11.310;2024-03-25T13:54:11;20.50;57.70
39601;DHT22;25297;44.758;11.310;2024-03-25T13:56:37;20.60;57.60
39601;DHT22;25297;44.758;11.310;2024-03-25T13:59:03;20.60;56.70
39601;DHT22;25297;44.758;11.310;2024-03-25T14:01:28;20.60;57.30
39601;DHT22;25297;44.758;11.310;2024-03-25T14:03:54;20.60;56.60
39601;DHT22;25297;44.758;11.310;2024-03-25T14:06:20;20.60;57.90
39601;DHT22;25297;44.758;11.310;2024-03-25T14:08:46;20.60;57.60
39601;DHT22;25297;44.758;11.310;2024-03-25T14:11:11;20.60;57.60
39601;DHT22;25297;44.758;11.310;2024-03-25T14:13:38;20.70;57.70
39601;DHT22;25297;44.758;11.310;2024-03-25T14:16:03;20.70;58.10
39601;DHT22;25297;44.758;11.310;2024-03-25T14:18:29;20.70;56.80
39601;DHT22;25297;44.758;11.310;2024-03-25T14:20:56;20.70;55.80
39601;DHT22;25297;44.758;11.310;2024-03-25T14:23:22;20.60;56.20
39601;DHT22;25297;44.758;11.310;2024-03-25T14:25:48;20.60;56.20
39601;DHT22;25297;44.758;11.310;2024-03-25T14:28:13;20.50;55.80
39601;DHT22;25297;44.758;11.310;2024-03-25T14:30:39;20.50;56.20
39601;DHT22;25297;44.758;11.310;2024-03-25T14:33:05;20.50;55.50
39601;DHT22;25297;44.758;11.310;2024-03-25T14:35:31;20.40;56.50
39601;DHT22;25297;44.758;11.310;2024-03-25T14:37:57;20.40;56.90
39601;DHT22;25297;44.758;11.310;2024-03-25T14:40:23;20.40;56.50
39601;DHT22;25297;44.758;11.310;2024-03-25T14:42:49;20.40;56.30
39601;DHT22;25297;44.758;11.310;2024-03-25T14:45:14;20.30;57.20
39601;DHT22;25297;44.758;11.310;2024-03-25T14:47:40;20.30;57.20
39601;DHT22;25297;44.758;11.310;2024-03-25T14:50:06;20.30;58.00
39601;DHT22;25297;44.758;11.310;2024-03-25T14:52:31;20.20;58.70
39601;DHT22;25297;44.758;11.310;2024-03-25T14:54:58;20.20;58.90
39601;DHT22;25297;44.758;11.310;2024-03-25T14:57:23;20.20;59.10
39601;DHT22;25297;44.758;11.310;2024-03-25T14:59:49;20.10;58.90
39601;DHT22;25297;44.758;11.310;2024-03-25T15:02:15;20.10;59.40
39601;DHT22;25297;44.758;11.310;2024-03-25T15:04:41;20.10;59.30
39601;DHT22;25297;44.758;11.310;2024-03-25T15:07:10;20.10;59.30
39601;DHT22;25297;44.758;11.310;2024-03-25T15:09:36;20.00;59.30